Time;durP1;ratioP1;P1;durP2;ratioP2;P2;SDS_P1;SDS_P2;PMS_P1;PMS_P2;Temp;Humidity;BMP_temperature;BMP_pressure;BME280_temperature;BME280_humidity;BME280_pressure;Samples;Min_cycle;Max_cycle;Signal;HPM_P1;HPM_P2
2022/12/02 00:00:19;;;;;;;0.40;0.40;;;;;;;;;;5056536;28;20262;-86
2022/12/02 00:02:46;;;;;;;2.43;1.40;;;;;;;;;;5074392;28;20205;-85
2022/12/02 00:05:26;;;;;;;0.97;0.70;;;;;;;;;;5059742;28;20216;-84
2022/12/02 00:07:55;;;;;;;0.83;0.83;;;;;;;;;;5073618;28;20213;-86
2022/12/02 00:10:24;;;;;;;1.70;1.20;;;;;;;;;;5054601;28;20267;-86
2022/12/02 00:12:51;;;;;;;2.70;1.50;;;;;;;;;;5047903;28;20232;-87
2022/12/02 00:15:41;;;;;;;1.07;0.93;;;;;;;;;;5055653;28;20206;-86
2022/12/02 00:18:10;;;;;;;0.43;0.43;;;;;;;;;;5067029;28;20235;-86
2022/12/02 00:20:37;;;;;;;2.10;1.03;;;;;;;;;;5041919;28;20574;-85
2022/12/02 00:23:06;;;;;;;0.83;0.83;;;;;;;;;;5072378;28;20680;-86
2022/12/02 00:25:33;;;;;;;1.53;1.20;;;;;;;;;;5068950;28;20209;-84
2022/12/02 00:28:00;;;;;;;1.37;0.90;;;;;;;;;;5064069;28;20212;-86
2022/12/02 00:30:27;;;;;;;1.70;1.00;;;;;;;;;;5058965;28;20279;-84
2022/12/02 00:32:54;;;;;;;1.73;1.63;;;;;;;;;;5064887;28;20704;-86
2022/12/02 00:35:21;;;;;;;2.80;1.80;;;;;;;;;;5053820;28;20209;-89
2022/12/02 00:37:48;;;;;;;1.13;1.13;;;;;;;;;;5055852;28;20591;-85
2022/12/02 00:40:17;;;;;;;0.80;0.80;;;;;;;;;;5073327;28;20237;-86
2022/12/02 00:42:44;;;;;;;0.67;0.63;;;;;;;;;;5049762;28;20619;-86
2022/12/02 00:48:05;;;;;;;0.90;0.90;;;;;;;;;;5024888;28;20211;-85
2022/12/02 00:50:32;;;;;;;0.60;0.60;;;;;;;;;;5073079;28;20278;-85
2022/12/02 00:52:58;;;;;;;1.70;1.30;;;;;;;;;;5073394;28;20247;-86
2022/12/02 00:55:27;;;;;;;1.60;1.37;;;;;;;;;;5072960;28;20270;-86
2022/12/02 00:57:54;;;;;;;2.93;2.07;;;;;;;;;;5055435;28;20228;-86
2022/12/02 01:00:21;;;;;;;2.13;1.83;;;;;;;;;;5073042;28;20197;-86
2022/12/02 01:02:48;;;;;;;1.80;1.60;;;;;;;;;;5059638;28;20201;-84
2022/12/02 01:05:15;;;;;;;4.07;3.40;;;;;;;;;;5072383;28;20197;-86
2022/12/02 01:07:42;;;;;;;4.07;3.43;;;;;;;;;;5072661;28;20557;-86
2022/12/02 01:10:09;;;;;;;3.23;2.30;;;;;;;;;;5072793;28;20201;-86
2022/12/02 01:12:38;;;;;;;2.40;2.20;;;;;;;;;;5062979;28;20229;-86
2022/12/02 01:15:06;;;;;;;3.87;2.67;;;;;;;;;;5068879;28;20200;-86
2022/12/02 01:17:33;;;;;;;5.23;4.73;;;;;;;;;;5046599;28;20271;-87
2022/12/02 01:20:00;;;;;;;1.90;1.80;;;;;;;;;;5067318;28;20617;-85
2022/12/02 01:22:27;;;;;;;1.00;1.00;;;;;;;;;;5072649;28;20623;-85
2022/12/02 01:24:54;;;;;;;1.00;1.00;;;;;;;;;;5055021;28;20212;-85
2022/12/02 01:27:21;;;;;;;1.23;1.13;;;;;;;;;;5049645;28;20213;-84
2022/12/02 01:29:50;;;;;;;5.33;1.30;;;;;;;;;;5052413;28;20300;-84
2022/12/02 01:32:18;;;;;;;1.00;1.00;;;;;;;;;;5051921;28;20225;-84
2022/12/02 01:34:45;;;;;;;2.03;1.93;;;;;;;;;;5051794;28;20248;-84
2022/12/02 01:37:12;;;;;;;0.90;0.90;;;;;;;;;;5048045;28;20262;-84
2022/12/02 01:39:39;;;;;;;1.10;1.00;;;;;;;;;;5059983;28;20216;-84
2022/12/02 01:42:06;;;;;;;1.70;1.60;;;;;;;;;;5054343;28;20205;-84
2022/12/02 01:44:33;;;;;;;15.53;13.20;;;;;;;;;;5054608;28;20209;-84
2022/12/02 01:47:02;;;;;;;3.83;3.50;;;;;;;;;;5058743;28;20206;-83
2022/12/02 01:49:29;;;;;;;5.40;4.80;;;;;;;;;;5052103;28;20213;-84
2022/12/02 01:51:56;;;;;;;2.97;2.57;;;;;;;;;;5033848;28;20705;-84
2022/12/02 01:54:23;;;;;;;6.20;3.80;;;;;;;;;;5048044;28;20198;-84
2022/12/02 01:56:50;;;;;;;6.40;4.03;;;;;;;;;;5038082;28;20202;-84
2022/12/02 01:59:18;;;;;;;5.13;4.40;;;;;;;;;;5045998;28;20208;-84
2022/12/02 02:01:45;;;;;;;5.43;4.07;;;;;;;;;;5071305;28;20212;-84
2022/12/02 02:04:13;;;;;;;3.73;3.20;;;;;;;;;;5043506;28;20209;-84
2022/12/02 02:06:43;;;;;;;1.37;1.27;;;;;;;;;;5054584;28;20201;-84
2022/12/02 02:09:10;;;;;;;1.07;0.90;;;;;;;;;;5071751;28;20212;-84
2022/12/02 02:11:38;;;;;;;0.90;0.90;;;;;;;;;;5070985;28;20729;-84
2022/12/02 02:14:07;;;;;;;1.60;1.50;;;;;;;;;;5063253;28;20750;-84
2022/12/02 02:16:34;;;;;;;8.30;4.27;;;;;;;;;;5034100;28;20210;-85
2022/12/02 02:19:02;;;;;;;8.80;4.70;;;;;;;;;;5046602;28;20269;-84
2022/12/02 02:21:35;;;;;;;4.70;2.93;;;;;;;;;;5064472;28;20201;-85
2022/12/02 02:24:03;;;;;;;2.80;1.00;;;;;;;;;;5057030;28;20205;-85
2022/12/02 02:26:30;;;;;;;0.63;0.63;;;;;;;;;;5059382;28;20209;-85
2022/12/02 02:28:56;;;;;;;0.30;0.30;;;;;;;;;;5065260;28;20237;-86
2022/12/02 02:31:23;;;;;;;0.30;0.30;;;;;;;;;;5061172;28;20211;-85
2022/12/02 02:33:50;;;;;;;0.87;0.33;;;;;;;;;;5053594;28;20247;-85
2022/12/02 02:36:17;;;;;;;0.40;0.40;;;;;;;;;;5062632;28;20268;-85
2022/12/02 02:38:45;;;;;;;0.27;0.27;;;;;;;;;;5033553;28;20210;-85
2022/12/02 02:41:13;;;;;;;0.13;0.13;;;;;;;;;;5033370;28;20813;-85
2022/12/02 02:43:40;;;;;;;0.20;0.20;;;;;;;;;;5064591;28;20209;-85
2022/12/02 02:46:08;;;;;;;0.47;0.47;;;;;;;;;;5052419;28;20196;-85
2022/12/02 02:48:35;;;;;;;0.30;0.30;;;;;;;;;;5071233;28;20204;-86
2022/12/02 02:51:02;;;;;;;0.27;0.27;;;;;;;;;;5070864;28;20664;-85
2022/12/02 02:53:29;;;;;;;0.70;0.70;;;;;;;;;;5060820;28;20233;-85
2022/12/02 02:55:56;;;;;;;0.50;0.50;;;;;;;;;;5067463;28;20238;-85
2022/12/02 02:58:26;;;;;;;0.67;0.40;;;;;;;;;;5070615;28;20262;-84
2022/12/02 03:00:56;;;;;;;0.40;0.40;;;;;;;;;;5071030;28;20262;-85
2022/12/02 03:03:25;;;;;;;0.30;0.30;;;;;;;;;;5035117;28;20194;-85
2022/12/02 03:05:53;;;;;;;0.37;0.37;;;;;;;;;;5061214;28;20201;-85
2022/12/02 03:08:21;;;;;;;0.37;0.37;;;;;;;;;;5068252;28;20217;-85
2022/12/02 03:10:48;;;;;;;0.53;0.53;;;;;;;;;;5059549;28;20209;-86
2022/12/02 03:13:15;;;;;;;0.40;0.40;;;;;;;;;;5069620;28;20236;-85
2022/12/02 03:15:44;;;;;;;0.93;0.47;;;;;;;;;;5058152;28;20197;-85
2022/12/02 03:18:11;;;;;;;3.53;2.33;;;;;;;;;;5032944;28;20680;-86
2022/12/02 03:20:38;;;;;;;0.77;0.77;;;;;;;;;;5047318;28;20209;-85
2022/12/02 03:23:05;;;;;;;0.40;0.40;;;;;;;;;;5050463;28;20214;-85
2022/12/02 03:25:31;;;;;;;1.00;0.30;;;;;;;;;;5054866;28;20197;-86
2022/12/02 03:27:58;;;;;;;0.30;0.30;;;;;;;;;;5060334;28;20212;-85
2022/12/02 03:30:25;;;;;;;0.67;0.50;;;;;;;;;;5050118;28;20220;-86
2022/12/02 03:32:54;;;;;;;1.27;1.17;;;;;;;;;;5050479;28;20651;-85
2022/12/02 03:35:21;;;;;;;1.13;1.03;;;;;;;;;;5050467;28;20297;-86
2022/12/02 03:37:48;;;;;;;2.67;1.60;;;;;;;;;;5050543;28;20206;-86
2022/12/02 03:40:15;;;;;;;3.63;1.93;;;;;;;;;;5064023;28;20283;-86
2022/12/02 03:42:42;;;;;;;2.03;1.83;;;;;;;;;;5063286;28;20601;-86
2022/12/02 03:45:12;;;;;;;2.07;1.60;;;;;;;;;;5045098;28;20875;-86
2022/12/02 03:47:40;;;;;;;2.20;1.67;;;;;;;;;;5061549;28;20206;-86
2022/12/02 03:50:11;;;;;;;0.80;0.73;;;;;;;;;;5064732;28;20216;-87
2022/12/02 03:52:38;;;;;;;0.50;0.50;;;;;;;;;;5039077;28;20209;-86
2022/12/02 03:55:06;;;;;;;0.23;0.23;;;;;;;;;;5070750;28;20212;-87
2022/12/02 03:57:33;;;;;;;0.60;0.60;;;;;;;;;;5067339;28;20216;-87
2022/12/02 04:00:01;;;;;;;4.60;2.57;;;;;;;;;;5056338;28;20212;-87
2022/12/02 04:02:28;;;;;;;2.27;2.07;;;;;;;;;;5074253;28;20209;-87
2022/12/02 04:04:54;;;;;;;2.17;1.23;;;;;;;;;;5073864;28;20216;-88
2022/12/02 04:07:24;;;;;;;0.60;0.60;;;;;;;;;;5073944;28;21113;-87
2022/12/02 04:09:50;;;;;;;1.10;1.00;;;;;;;;;;5059943;28;20217;-87
2022/12/02 04:12:17;;;;;;;0.80;0.80;;;;;;;;;;5069533;28;20205;-84
2022/12/02 04:14:44;;;;;;;0.30;0.30;;;;;;;;;;5073280;28;20261;-86
2022/12/02 04:17:11;;;;;;;0.63;0.60;;;;;;;;;;5073167;28;20614;-87
2022/12/02 04:19:38;;;;;;;0.33;0.33;;;;;;;;;;5074034;28;20576;-88
2022/12/02 04:22:05;;;;;;;0.47;0.47;;;;;;;;;;5055984;28;20213;-88
2022/12/02 04:24:33;;;;;;;0.60;0.60;;;;;;;;;;5056121;28;20201;-89
2022/12/02 04:27:03;;;;;;;144.13;62.37;;;;;;;;;;5074814;28;20247;-88
2022/12/02 04:29:30;;;;;;;118.60;50.83;;;;;;;;;;5074072;28;20209;-88
2022/12/02 04:31:57;;;;;;;13.10;4.77;;;;;;;;;;5074317;28;20274;-88
2022/12/02 04:34:24;;;;;;;5.17;2.80;;;;;;;;;;5073579;28;20240;-88
2022/12/02 04:36:50;;;;;;;1.27;1.17;;;;;;;;;;5073678;28;20217;-88
2022/12/02 04:39:17;;;;;;;0.90;0.90;;;;;;;;;;5074247;28;20209;-87
2022/12/02 04:41:45;;;;;;;31.43;16.60;;;;;;;;;;5072315;28;20225;-88
2022/12/02 04:44:12;;;;;;;21.57;10.50;;;;;;;;;;5060932;28;20216;-88
2022/12/02 04:46:39;;;;;;;13.03;7.27;;;;;;;;;;5073017;28;20201;-87
2022/12/02 04:49:06;;;;;;;15.97;10.70;;;;;;;;;;5073791;28;20254;-87
2022/12/02 04:51:33;;;;;;;3.33;2.80;;;;;;;;;;5073426;28;20209;-88
2022/12/02 04:54:00;;;;;;;3.23;2.33;;;;;;;;;;5055103;28;20723;-87
2022/12/02 04:56:27;;;;;;;3.20;1.83;;;;;;;;;;5056857;28;20782;-88
2022/12/02 04:58:55;;;;;;;1.33;1.23;;;;;;;;;;5073368;28;20204;-87
2022/12/02 05:01:21;;;;;;;2.57;1.70;;;;;;;;;;5072713;28;20209;-88
2022/12/02 05:03:48;;;;;;;1.60;1.37;;;;;;;;;;5067397;28;20677;-87
2022/12/02 05:06:15;;;;;;;1.17;1.07;;;;;;;;;;5067225;28;20204;-88
2022/12/02 05:08:42;;;;;;;0.90;0.90;;;;;;;;;;5063528;28;20200;-87
2022/12/02 05:11:09;;;;;;;0.50;0.50;;;;;;;;;;5066451;28;20205;-87
2022/12/02 05:13:36;;;;;;;0.53;0.53;;;;;;;;;;5054650;28;20657;-86
2022/12/02 05:16:05;;;;;;;0.70;0.50;;;;;;;;;;5064553;28;20217;-90
2022/12/02 05:18:32;;;;;;;2.20;0.60;;;;;;;;;;5065401;28;20292;-87
2022/12/02 05:20:59;;;;;;;2.90;0.43;;;;;;;;;;5039867;28;20694;-86
2022/12/02 05:23:25;;;;;;;2.57;2.37;;;;;;;;;;5053405;28;20216;-86
2022/12/02 05:25:53;;;;;;;5.33;4.93;;;;;;;;;;5072917;28;20216;-86
2022/12/02 05:28:21;;;;;;;6.03;5.37;;;;;;;;;;5072281;28;20255;-87
2022/12/02 05:30:48;;;;;;;7.67;5.93;;;;;;;;;;5056890;28;20213;-86
2022/12/02 05:33:16;;;;;;;8.83;6.27;;;;;;;;;;5066247;28;20225;-85
2022/12/02 05:35:43;;;;;;;4.40;3.60;;;;;;;;;;5062595;28;20209;-87
2022/12/02 05:38:10;;;;;;;5.23;4.30;;;;;;;;;;5054308;28;20212;-87
2022/12/02 05:40:37;;;;;;;4.90;4.37;;;;;;;;;;5052872;28;20225;-87
2022/12/02 05:43:15;;;;;;;3.40;3.10;;;;;;;;;;5034489;28;20218;-92
2022/12/02 05:45:42;;;;;;;4.40;4.00;;;;;;;;;;5051455;28;20628;-87
2022/12/02 05:48:11;;;;;;;3.67;3.27;;;;;;;;;;5051797;28;20205;-88
2022/12/02 05:50:39;;;;;;;2.73;2.53;;;;;;;;;;5051784;28;20217;-87
2022/12/02 05:53:07;;;;;;;5.67;4.00;;;;;;;;;;5052309;28;20214;-87
2022/12/02 05:55:35;;;;;;;7.30;6.10;;;;;;;;;;5063693;28;20288;-87
2022/12/02 05:58:02;;;;;;;4.93;4.00;;;;;;;;;;5072130;28;20228;-86
2022/12/02 06:00:30;;;;;;;1.73;1.63;;;;;;;;;;5071950;28;20209;-86
2022/12/02 06:03:00;;;;;;;3.63;3.27;;;;;;;;;;5058143;28;20217;-87
2022/12/02 06:05:28;;;;;;;1.60;1.50;;;;;;;;;;5072068;28;20213;-87
2022/12/02 06:07:58;;;;;;;1.10;1.07;;;;;;;;;;5071619;28;20274;-87
2022/12/02 06:10:27;;;;;;;1.03;1.03;;;;;;;;;;5057910;28;20209;-86
2022/12/02 06:12:57;;;;;;;1.23;1.13;;;;;;;;;;5071860;28;20205;-87
2022/12/02 06:15:24;;;;;;;1.37;1.30;;;;;;;;;;5066613;28;20229;-86
2022/12/02 06:17:52;;;;;;;3.00;2.70;;;;;;;;;;5051599;28;20209;-87
2022/12/02 06:20:25;;;;;;;7.40;5.50;;;;;;;;;;5068488;28;20205;-87
2022/12/02 06:22:52;;;;;;;13.03;8.73;;;;;;;;;;5061348;28;20206;-87
2022/12/02 06:25:24;;;;;;;10.60;9.53;;;;;;;;;;5053969;28;20221;-87
2022/12/02 06:27:52;;;;;;;5.10;4.70;;;;;;;;;;5071293;28;20209;-86
2022/12/02 06:30:19;;;;;;;8.57;7.90;;;;;;;;;;5057428;28;20210;-86
2022/12/02 06:32:52;;;;;;;5.63;5.13;;;;;;;;;;5063633;28;20213;-87
2022/12/02 06:35:22;;;;;;;2.40;2.20;;;;;;;;;;5065778;28;20816;-86
2022/12/02 06:37:49;;;;;;;1.23;1.13;;;;;;;;;;5071809;28;20209;-87
2022/12/02 06:40:24;;;;;;;0.70;0.70;;;;;;;;;;5071477;28;20239;-87
2022/12/02 06:42:51;;;;;;;4.23;3.37;;;;;;;;;;5051417;28;20213;-86
2022/12/02 06:45:22;;;;;;;2.20;2.00;;;;;;;;;;5063875;28;20205;-86
2022/12/02 06:47:51;;;;;;;1.70;1.60;;;;;;;;;;5070926;28;20675;-87
2022/12/02 06:50:30;;;;;;;2.20;2.00;;;;;;;;;;5071154;28;20216;-86
2022/12/02 06:53:07;;;;;;;1.33;1.23;;;;;;;;;;5071251;28;20213;-87
2022/12/02 06:55:37;;;;;;;12.40;8.00;;;;;;;;;;5070891;28;20239;-87
2022/12/02 06:58:28;;;;;;;4.23;3.70;;;;;;;;;;5067109;28;20209;-87
2022/12/02 07:00:55;;;;;;;14.20;9.60;;;;;;;;;;5071173;28;20572;-86
2022/12/02 07:03:30;;;;;;;4.83;4.40;;;;;;;;;;5071038;28;20211;-86
2022/12/02 07:06:09;;;;;;;8.03;6.67;;;;;;;;;;5071273;28;20212;-86
2022/12/02 07:08:36;;;;;;;2.20;2.00;;;;;;;;;;5070744;28;21045;-92
2022/12/02 07:11:05;;;;;;;2.93;2.47;;;;;;;;;;5059964;28;20638;-87
2022/12/02 07:13:32;;;;;;;1.50;1.40;;;;;;;;;;5068400;28;20216;-87
2022/12/02 07:15:59;;;;;;;0.80;0.80;;;;;;;;;;5061281;28;20217;-87
2022/12/02 07:18:26;;;;;;;1.40;1.17;;;;;;;;;;5066679;28;20254;-86
2022/12/02 07:20:52;;;;;;;4.43;1.90;;;;;;;;;;5070717;28;20745;-86
2022/12/02 07:23:20;;;;;;;4.80;4.40;;;;;;;;;;5070837;28;20637;-87
2022/12/02 07:25:48;;;;;;;3.13;1.63;;;;;;;;;;5057408;28;20197;-86
2022/12/02 07:28:22;;;;;;;2.67;2.47;;;;;;;;;;5070801;28;20676;-86
2022/12/02 07:30:54;;;;;;;1.43;1.33;;;;;;;;;;5057529;28;20634;-86
2022/12/02 07:33:22;;;;;;;1.57;1.47;;;;;;;;;;5062233;28;20225;-86
2022/12/02 07:35:48;;;;;;;1.20;1.20;;;;;;;;;;5059490;28;20639;-86
2022/12/02 07:38:15;;;;;;;1.90;1.80;;;;;;;;;;5064188;28;20272;-87
2022/12/02 07:40:42;;;;;;;2.20;2.10;;;;;;;;;;5071787;28;20229;-87
2022/12/02 07:43:10;;;;;;;2.03;1.93;;;;;;;;;;5075052;28;20636;-87
2022/12/02 07:45:38;;;;;;;9.57;7.83;;;;;;;;;;5058986;28;20209;-86
2022/12/02 07:48:05;;;;;;;17.53;13.43;;;;;;;;;;5062028;28;20212;-88
2022/12/02 07:50:32;;;;;;;19.60;15.03;;;;;;;;;;5074475;28;20209;-89
2022/12/02 07:52:59;;;;;;;35.17;24.03;;;;;;;;;;5074269;28;20219;-86
2022/12/02 07:55:26;;;;;;;6.57;5.97;;;;;;;;;;5074305;28;20231;-87
2022/12/02 07:57:53;;;;;;;11.33;7.73;;;;;;;;;;5074158;28;20670;-87
2022/12/02 08:00:21;;;;;;;10.30;6.43;;;;;;;;;;5074316;28;20204;-87
2022/12/02 08:02:49;;;;;;;6.33;5.73;;;;;;;;;;5061562;28;20288;-87
2022/12/02 08:05:16;;;;;;;9.13;7.30;;;;;;;;;;5073617;28;20197;-87
2022/12/02 08:07:43;;;;;;;10.37;6.63;;;;;;;;;;5074291;28;20209;-86
2022/12/02 08:10:10;;;;;;;5.67;5.17;;;;;;;;;;5060306;28;20216;-87
2022/12/02 08:12:38;;;;;;;1.93;1.83;;;;;;;;;;5074130;28;20200;-86
2022/12/02 08:15:06;;;;;;;10.17;7.33;;;;;;;;;;5074111;28;20235;-87
2022/12/02 08:17:32;;;;;;;3.67;3.27;;;;;;;;;;5073747;28;20208;-86
2022/12/02 08:20:01;;;;;;;6.23;5.20;;;;;;;;;;5073581;28;20220;-87
2022/12/02 08:22:28;;;;;;;3.93;3.23;;;;;;;;;;5067444;28;20205;-87
2022/12/02 08:24:55;;;;;;;4.30;3.90;;;;;;;;;;5053728;28;20210;-86
2022/12/02 08:27:21;;;;;;;8.77;7.17;;;;;;;;;;5073251;28;20201;-87
2022/12/02 08:29:49;;;;;;;3.20;2.90;;;;;;;;;;5062535;28;20206;-86
2022/12/02 08:32:16;;;;;;;1.53;1.43;;;;;;;;;;5071393;28;20205;-87
2022/12/02 08:34:43;;;;;;;3.87;3.57;;;;;;;;;;5074117;28;20252;-87
2022/12/02 08:37:12;;;;;;;2.60;2.33;;;;;;;;;;5073893;28;20197;-87
2022/12/02 08:39:39;;;;;;;2.40;2.03;;;;;;;;;;5065048;28;20704;-87
2022/12/02 08:42:07;;;;;;;2.30;2.10;;;;;;;;;;5053698;28;20209;-87
2022/12/02 08:44:34;;;;;;;1.37;1.27;;;;;;;;;;5072388;28;20236;-87
2022/12/02 08:47:00;;;;;;;1.20;1.10;;;;;;;;;;5073167;28;20216;-87
2022/12/02 08:49:27;;;;;;;2.63;0.80;;;;;;;;;;5073252;28;20592;-87
2022/12/02 08:51:54;;;;;;;1.23;1.13;;;;;;;;;;5061831;28;20210;-87
2022/12/02 08:54:22;;;;;;;1.00;0.90;;;;;;;;;;5070293;28;20229;-87
2022/12/02 08:56:49;;;;;;;1.33;1.20;;;;;;;;;;5072954;28;20209;-88
2022/12/02 08:59:16;;;;;;;1.40;1.30;;;;;;;;;;5073022;28;20294;-87
2022/12/02 09:01:43;;;;;;;5.83;4.53;;;;;;;;;;5073291;28;20594;-88
2022/12/02 09:04:09;;;;;;;28.60;22.93;;;;;;;;;;5073126;28;20205;-87
2022/12/02 09:06:36;;;;;;;94.77;50.70;;;;;;;;;;5073324;28;20205;-86
2022/12/02 09:09:04;;;;;;;42.43;27.67;;;;;;;;;;5072842;28;20208;-86
2022/12/02 09:11:32;;;;;;;48.53;35.27;;;;;;;;;;5072416;28;20201;-87
2022/12/02 09:13:59;;;;;;;22.57;10.80;;;;;;;;;;5072924;28;20200;-86
2022/12/02 09:16:26;;;;;;;3.80;3.20;;;;;;;;;;5072714;28;20205;-88
2022/12/02 09:18:54;;;;;;;37.70;22.43;;;;;;;;;;5072696;28;20216;-86
2022/12/02 09:21:21;;;;;;;19.43;14.00;;;;;;;;;;5073145;28;20259;-86
2022/12/02 09:23:48;;;;;;;34.93;26.60;;;;;;;;;;5068657;28;20198;-86
2022/12/02 09:26:15;;;;;;;24.13;19.43;;;;;;;;;;5052585;28;20205;-87
2022/12/02 09:28:43;;;;;;;22.53;17.53;;;;;;;;;;5066633;28;20205;-87
2022/12/02 09:31:10;;;;;;;57.87;33.53;;;;;;;;;;5061183;28;20614;-86
2022/12/02 09:33:36;;;;;;;19.70;12.13;;;;;;;;;;5072620;28;20205;-86
2022/12/02 09:36:04;;;;;;;3.20;2.90;;;;;;;;;;5072285;28;20230;-86
2022/12/02 09:38:31;;;;;;;1.83;1.33;;;;;;;;;;5072116;28;20197;-86
2022/12/02 09:40:58;;;;;;;12.53;10.70;;;;;;;;;;5072309;28;20721;-87
2022/12/02 09:43:25;;;;;;;18.10;16.07;;;;;;;;;;5072291;28;20216;-87
2022/12/02 09:45:53;;;;;;;17.90;15.90;;;;;;;;;;5054834;28;20243;-87
2022/12/02 09:48:20;;;;;;;6.30;5.33;;;;;;;;;;5062134;28;20205;-86
2022/12/02 09:50:47;;;;;;;8.57;7.67;;;;;;;;;;5071667;28;20216;-87
2022/12/02 09:53:15;;;;;;;2.97;2.70;;;;;;;;;;5072434;28;20224;-90
2022/12/02 09:55:42;;;;;;;2.07;1.80;;;;;;;;;;5056957;28;20777;-88
2022/12/02 09:58:12;;;;;;;1.77;1.50;;;;;;;;;;5068876;28;20284;-86
2022/12/02 10:00:39;;;;;;;2.03;1.77;;;;;;;;;;5062458;28;20720;-86
2022/12/02 10:03:08;;;;;;;1.40;1.30;;;;;;;;;;5067213;28;20204;-85
2022/12/02 10:05:35;;;;;;;1.33;1.23;;;;;;;;;;5071709;28;20213;-88
2022/12/02 10:08:03;;;;;;;1.53;1.43;;;;;;;;;;5057548;28;20234;-87
2022/12/02 10:10:34;;;;;;;1.80;1.70;;;;;;;;;;5058152;28;20201;-86
2022/12/02 10:13:01;;;;;;;6.27;5.40;;;;;;;;;;5071682;28;20205;-86
2022/12/02 10:15:30;;;;;;;7.33;6.43;;;;;;;;;;5065804;28;20221;-87
2022/12/02 10:17:58;;;;;;;10.13;8.07;;;;;;;;;;5051919;28;20684;-87
2022/12/02 10:20:28;;;;;;;15.17;13.30;;;;;;;;;;5065269;28;20205;-89
2022/12/02 10:23:14;;;;;;;4.10;3.43;;;;;;;;;;5062198;28;20205;-87
2022/12/02 10:25:42;;;;;;;4.50;3.20;;;;;;;;;;5071208;28;20258;-87
2022/12/02 10:28:24;;;;;;;5.97;5.47;;;;;;;;;;5071645;28;20695;-87
2022/12/02 10:30:53;;;;;;;3.33;3.03;;;;;;;;;;5071327;28;20209;-87
2022/12/02 10:33:24;;;;;;;5.00;4.50;;;;;;;;;;5059011;28;20688;-87
2022/12/02 10:35:53;;;;;;;12.37;8.23;;;;;;;;;;5051200;28;20700;-87
2022/12/02 10:38:32;;;;;;;3.40;2.97;;;;;;;;;;5063148;28;20208;-87
2022/12/02 10:41:21;;;;;;;1.67;1.33;;;;;;;;;;5065519;28;20225;-88
2022/12/02 10:44:04;;;;;;;1.40;1.30;;;;;;;;;;5066148;28;20595;-87
2022/12/02 10:46:32;;;;;;;1.30;1.20;;;;;;;;;;5071289;28;20695;-87
2022/12/02 10:49:28;;;;;;;0.93;0.93;;;;;;;;;;5056149;28;20259;-89
2022/12/02 10:51:59;;;;;;;1.00;0.90;;;;;;;;;;5062537;28;20264;-87
2022/12/02 10:54:28;;;;;;;0.90;0.90;;;;;;;;;;5066899;28;20259;-87
2022/12/02 10:56:56;;;;;;;1.13;1.03;;;;;;;;;;5051284;28;20233;-87
2022/12/02 10:59:23;;;;;;;1.60;0.83;;;;;;;;;;5063898;28;20699;-87
2022/12/02 11:01:51;;;;;;;0.90;0.90;;;;;;;;;;5070671;28;21068;-91
2022/12/02 11:04:18;;;;;;;1.13;1.10;;;;;;;;;;5071611;28;20208;-87
2022/12/02 11:06:45;;;;;;;1.53;1.43;;;;;;;;;;5052458;28;20209;-88
2022/12/02 11:09:18;;;;;;;2.27;2.10;;;;;;;;;;5051247;28;20289;-87
2022/12/02 11:11:45;;;;;;;1.73;1.63;;;;;;;;;;5067842;28;20915;-87
2022/12/02 11:14:13;;;;;;;2.00;1.90;;;;;;;;;;5071022;28;20201;-87
2022/12/02 11:16:46;;;;;;;2.40;2.20;;;;;;;;;;5056730;28;20237;-87
2022/12/02 11:19:42;;;;;;;2.07;1.93;;;;;;;;;;5071042;28;20251;-87
2022/12/02 11:22:42;;;;;;;2.10;2.00;;;;;;;;;;5066835;28;20216;-87
2022/12/02 11:25:48;;;;;;;1.67;1.43;;;;;;;;;;5052228;28;20716;-87
2022/12/02 11:28:32;;;;;;;1.70;1.60;;;;;;;;;;5058106;28;20210;-87
2022/12/02 11:31:18;;;;;;;1.60;1.50;;;;;;;;;;5058059;28;20614;-87
2022/12/02 11:34:01;;;;;;;1.40;1.37;;;;;;;;;;5071057;28;20201;-88
2022/12/02 11:36:29;;;;;;;1.70;1.60;;;;;;;;;;5070708;28;20311;-86
2022/12/02 11:39:01;;;;;;;1.90;1.80;;;;;;;;;;5056996;28;20213;-87
2022/12/02 11:41:30;;;;;;;3.00;2.07;;;;;;;;;;5071090;28;20650;-87
2022/12/02 11:44:22;;;;;;;2.33;2.23;;;;;;;;;;5068664;28;20260;-87
2022/12/02 11:46:50;;;;;;;1.70;1.60;;;;;;;;;;5050674;28;20209;-86
2022/12/02 11:49:29;;;;;;;2.10;1.87;;;;;;;;;;5054124;28;20197;-87
2022/12/02 11:52:12;;;;;;;2.50;2.30;;;;;;;;;;5070769;28;20710;-87
2022/12/02 11:54:41;;;;;;;3.13;2.83;;;;;;;;;;5070495;28;20212;-87
2022/12/02 11:57:18;;;;;;;2.30;2.03;;;;;;;;;;5070490;28;20243;-87
2022/12/02 11:59:45;;;;;;;2.50;2.30;;;;;;;;;;5070609;28;20201;-87
2022/12/02 12:02:14;;;;;;;2.93;2.73;;;;;;;;;;5070637;28;20212;-86
2022/12/02 12:04:41;;;;;;;3.40;3.10;;;;;;;;;;5055874;28;20217;-87
2022/12/02 12:07:08;;;;;;;3.33;3.07;;;;;;;;;;5070265;28;20213;-87
2022/12/02 12:09:35;;;;;;;3.13;2.83;;;;;;;;;;5070738;28;20714;-86
2022/12/02 12:12:11;;;;;;;3.93;3.53;;;;;;;;;;5051313;28;20209;-86
2022/12/02 12:15:00;;;;;;;2.63;2.40;;;;;;;;;;5063748;28;20570;-87
2022/12/02 12:17:33;;;;;;;2.90;2.60;;;;;;;;;;5067218;28;20676;-85
2022/12/02 12:19:59;;;;;;;2.90;2.50;;;;;;;;;;5073626;28;20308;-86
2022/12/02 12:22:28;;;;;;;2.90;2.70;;;;;;;;;;5074065;28;20197;-86
2022/12/02 12:25:02;;;;;;;2.67;2.40;;;;;;;;;;5073698;28;20212;-86
2022/12/02 12:27:37;;;;;;;2.33;2.13;;;;;;;;;;5073624;28;20259;-87
2022/12/02 12:30:06;;;;;;;2.57;2.37;;;;;;;;;;5074222;28;20213;-86
2022/12/02 12:32:32;;;;;;;2.67;2.47;;;;;;;;;;5073637;28;20205;-87
2022/12/02 12:34:59;;;;;;;3.50;3.20;;;;;;;;;;5073909;28;20204;-86
2022/12/02 12:37:26;;;;;;;7.33;3.43;;;;;;;;;;5059359;28;20197;-87
2022/12/02 12:39:53;;;;;;;4.97;4.20;;;;;;;;;;5073568;28;20209;-86
2022/12/02 12:42:19;;;;;;;2.50;2.30;;;;;;;;;;5073461;28;20212;-87
2022/12/02 12:44:48;;;;;;;1.80;1.70;;;;;;;;;;5073572;28;20212;-88
2022/12/02 12:47:17;;;;;;;2.77;1.43;;;;;;;;;;5073285;28;20733;-86
2022/12/02 12:49:44;;;;;;;1.47;1.37;;;;;;;;;;5073662;28;20211;-86
2022/12/02 12:52:11;;;;;;;2.00;1.90;;;;;;;;;;5073468;28;20209;-87
2022/12/02 12:54:37;;;;;;;4.10;3.80;;;;;;;;;;5058935;28;20201;-87
2022/12/02 12:57:04;;;;;;;3.87;3.53;;;;;;;;;;5065395;28;20719;-87
2022/12/02 12:59:31;;;;;;;3.70;3.40;;;;;;;;;;5053220;28;20275;-90
2022/12/02 13:01:59;;;;;;;4.00;3.60;;;;;;;;;;5053181;28;20220;-87
2022/12/02 13:04:26;;;;;;;2.27;2.07;;;;;;;;;;5053244;28;20202;-86
2022/12/02 13:06:53;;;;;;;1.23;1.13;;;;;;;;;;5053200;28;20205;-85
2022/12/02 13:09:20;;;;;;;1.80;1.70;;;;;;;;;;5063961;28;20209;-87
2022/12/02 13:11:47;;;;;;;2.00;1.90;;;;;;;;;;5073095;28;20288;-87
2022/12/02 13:14:15;;;;;;;2.47;2.30;;;;;;;;;;5072978;28;20205;-87
2022/12/02 13:16:42;;;;;;;1.83;1.73;;;;;;;;;;5057386;28;20654;-87
2022/12/02 13:19:10;;;;;;;1.63;1.53;;;;;;;;;;5060584;28;20197;-86
2022/12/02 13:21:36;;;;;;;0.83;0.83;;;;;;;;;;5072546;28;20726;-87
2022/12/02 13:24:04;;;;;;;1.27;1.17;;;;;;;;;;5066501;28;20206;-86
2022/12/02 13:26:31;;;;;;;1.40;1.30;;;;;;;;;;5065033;28;20201;-86
2022/12/02 13:28:57;;;;;;;2.13;1.83;;;;;;;;;;5057744;28;20216;-86
2022/12/02 13:31:24;;;;;;;2.73;2.10;;;;;;;;;;5072493;28;20197;-86
2022/12/02 13:33:51;;;;;;;0.93;0.80;;;;;;;;;;5055760;28;20210;-86
2022/12/02 13:36:19;;;;;;;1.33;1.23;;;;;;;;;;5060551;28;20278;-87
2022/12/02 13:38:46;;;;;;;1.87;1.30;;;;;;;;;;5071617;28;20217;-85
2022/12/02 13:41:13;;;;;;;1.23;1.17;;;;;;;;;;5059577;28;20237;-86
2022/12/02 13:43:42;;;;;;;0.90;0.90;;;;;;;;;;5072502;28;20201;-86
2022/12/02 13:46:08;;;;;;;1.63;1.27;;;;;;;;;;5072060;28;20197;-86
2022/12/02 13:48:35;;;;;;;1.53;1.33;;;;;;;;;;5071993;28;20209;-87
2022/12/02 13:51:03;;;;;;;1.23;1.13;;;;;;;;;;5053903;28;20608;-86
2022/12/02 13:53:31;;;;;;;1.50;1.40;;;;;;;;;;5062499;28;20201;-86
2022/12/02 13:55:57;;;;;;;2.00;1.90;;;;;;;;;;5069181;28;20241;-85
2022/12/02 13:58:25;;;;;;;3.10;2.80;;;;;;;;;;5070785;28;20204;-86
2022/12/02 14:00:53;;;;;;;3.50;3.20;;;;;;;;;;5071503;28;20266;-86
2022/12/02 14:03:20;;;;;;;3.00;2.70;;;;;;;;;;5071677;28;20618;-86
2022/12/02 14:05:47;;;;;;;12.60;9.17;;;;;;;;;;5062184;28;20662;-89
2022/12/02 14:08:14;;;;;;;9.30;7.77;;;;;;;;;;5051771;28;20212;-85
2022/12/02 14:10:42;;;;;;;5.60;5.07;;;;;;;;;;5059334;28;20676;-85
2022/12/02 14:13:09;;;;;;;4.40;4.00;;;;;;;;;;5057740;28;20217;-86
2022/12/02 14:15:36;;;;;;;2.07;1.97;;;;;;;;;;5071563;28;20228;-85
2022/12/02 14:18:02;;;;;;;4.53;4.13;;;;;;;;;;5071621;28;20209;-86
2022/12/02 14:20:29;;;;;;;1.87;1.77;;;;;;;;;;5066419;28;20217;-85
2022/12/02 14:22:56;;;;;;;1.93;1.40;;;;;;;;;;5062723;28;20201;-86
2022/12/02 14:25:23;;;;;;;1.60;1.50;;;;;;;;;;5071951;28;20216;-86
2022/12/02 14:27:51;;;;;;;2.47;2.27;;;;;;;;;;5062236;28;20202;-86
2022/12/02 14:30:20;;;;;;;5.60;4.17;;;;;;;;;;5053154;28;20210;-93
2022/12/02 14:32:48;;;;;;;5.13;4.67;;;;;;;;;;5064030;28;20206;-85
2022/12/02 14:35:15;;;;;;;10.47;5.60;;;;;;;;;;5051735;28;20216;-86
2022/12/02 14:37:45;;;;;;;5.83;5.23;;;;;;;;;;5071682;28;20225;-85
2022/12/02 14:40:12;;;;;;;9.27;8.27;;;;;;;;;;5070048;28;20232;-85
2022/12/02 14:42:39;;;;;;;6.07;5.57;;;;;;;;;;5057119;28;20213;-85
2022/12/02 14:45:08;;;;;;;6.07;5.47;;;;;;;;;;5070956;28;20687;-85
2022/12/02 14:47:35;;;;;;;6.00;5.37;;;;;;;;;;5071657;28;20231;-85
2022/12/02 14:50:02;;;;;;;5.23;4.70;;;;;;;;;;5071130;28;20201;-85
2022/12/02 14:52:29;;;;;;;5.53;4.63;;;;;;;;;;5071388;28;20291;-85